Time;durP1;ratioP1;P1;durP2;ratioP2;P2;SDS_P1;SDS_P2;PMS_P1;PMS_P2;Temp;Humidity;BMP_temperature;BMP_pressure;BME280_temperature;BME280_humidity;BME280_pressure;Samples;Min_cycle;Max_cycle;Signal;HPM_P1;HPM_P2
2023/06/05 00:00:54;;;;;;;;;4.00;4.00;;;;;22.20;40.29;101252.28;2087627;28;45166;-63
2023/06/05 00:01:54;;;;;;;;;6.00;6.00;;;;;22.20;40.23;101249.56;2093376;28;45613;-60
2023/06/05 00:02:55;;;;;;;;;5.00;5.00;;;;;22.22;40.22;101250.34;2089065;28;46364;-61
2023/06/05 00:03:55;;;;;;;;;3.50;3.00;;;;;22.22;40.65;101247.63;2093233;28;45957;-62
2023/06/05 00:04:56;;;;;;;;;6.50;5.00;;;;;22.22;39.97;101244.06;2088624;28;45486;-61
2023/06/05 00:05:56;;;;;;;;;2.50;2.50;;;;;22.22;40.19;101250.34;2087687;28;45590;-62
2023/06/05 00:06:57;;;;;;;;;3.00;3.00;;;;;22.21;40.55;101253.13;2094659;28;45436;-62
2023/06/05 00:07:57;;;;;;;;;5.00;5.00;;;;;22.19;40.58;101253.25;2091124;28;46344;-61
2023/06/05 00:08:58;;;;;;;;;3.00;1.00;;;;;22.18;40.39;101245.22;2091663;28;46312;-62
2023/06/05 00:09:58;;;;;;;;;4.25;4.25;;;;;22.17;40.57;101247.06;2088544;28;45996;-61
2023/06/05 00:10:58;;;;;;;;;2.25;2.00;;;;;22.16;40.68;101253.44;2087176;28;45510;-61
2023/06/05 00:11:58;;;;;;;;;3.00;3.00;;;;;22.15;40.44;101243.59;2086278;28;46519;-61
2023/06/05 00:12:59;;;;;;;;;4.25;4.25;;;;;22.14;40.40;101247.25;2091376;28;46261;-61
2023/06/05 00:14:00;;;;;;;;;4.00;4.00;;;;;22.13;40.64;101241.94;2089776;28;45460;-60
2023/06/05 00:15:01;;;;;;;;;4.50;4.25;;;;;22.12;40.82;101251.03;2092175;28;45864;-62
2023/06/05 00:16:03;;;;;;;;;3.40;3.00;;;;;22.10;40.76;101244.81;2088526;28;46439;-61
2023/06/05 00:17:03;;;;;;;;;3.00;3.00;;;;;22.09;40.93;101243.09;2081415;28;46158;-61
2023/06/05 00:18:04;;;;;;;;;4.75;4.25;;;;;22.07;40.74;101242.31;2078968;28;46692;-61
2023/06/05 00:19:04;;;;;;;;;4.50;4.00;;;;;22.06;41.44;101244.16;2087807;28;45680;-59
2023/06/05 00:20:11;;;;;;;;;5.00;4.00;;;;;22.06;40.38;101240.56;2088816;28;46465;-61
2023/06/05 00:21:12;;;;;;;;;3.20;3.20;;;;;22.05;41.14;101239.66;2087819;28;46123;-58
2023/06/05 00:22:13;;;;;;;;;4.80;4.20;;;;;22.04;40.42;101246.03;2094126;28;46314;-62
2023/06/05 00:23:13;;;;;;;;;2.00;2.00;;;;;22.01;41.17;101230.88;2094128;28;45432;-62
2023/06/05 00:24:13;;;;;;;;;4.00;4.00;;;;;21.99;41.21;101238.22;2090376;28;46337;-60
2023/06/05 00:25:14;;;;;;;;;4.00;3.50;;;;;21.98;40.65;101241.03;2090449;28;45568;-61
2023/06/05 00:26:14;;;;;;;;;5.00;4.00;;;;;21.97;40.85;101242.81;2091938;28;46788;-62
2023/06/05 00:27:15;;;;;;;;;4.00;4.00;;;;;21.96;41.00;101238.38;2088670;28;45223;-62
2023/06/05 00:28:15;;;;;;;;;7.00;5.00;;;;;21.96;41.45;101240.22;2091378;28;46267;-60
2023/06/05 00:29:16;;;;;;;;;6.50;5.50;;;;;21.94;40.80;101239.44;2091903;28;44979;-62
2023/06/05 00:30:16;;;;;;;;;3.00;3.00;;;;;21.93;41.11;101249.41;2090217;28;46294;-60
2023/06/05 00:31:18;;;;;;;;;5.00;3.00;;;;;21.93;41.43;101249.41;2093177;28;45305;-61
2023/06/05 00:32:18;;;;;;;;;4.20;4.20;;;;;21.93;41.39;101248.53;2089439;28;45488;-63
2023/06/05 00:33:19;;;;;;;;;4.25;4.25;;;;;21.91;41.08;101242.34;2089602;28;45937;-61
2023/06/05 00:34:19;;;;;;;;;3.00;3.00;;;;;21.92;41.19;101241.38;2089175;28;46002;-62
2023/06/05 00:35:20;;;;;;;;;3.25;3.25;;;;;21.90;40.96;101248.72;2080617;28;46100;-60
2023/06/05 00:36:22;;;;;;;;;3.75;3.75;;;;;21.90;41.05;101240.63;2090388;28;45125;-60
2023/06/05 00:37:22;;;;;;;;;4.40;4.40;;;;;21.88;41.28;101251.53;2088093;28;46003;-60
2023/06/05 00:38:23;;;;;;;;;3.50;3.50;;;;;21.87;41.21;101252.47;2088641;28;46468;-62
2023/06/05 00:39:23;;;;;;;;;4.00;4.00;;;;;21.87;41.26;101243.50;2088720;28;46545;-63
2023/06/05 00:40:24;;;;;;;;;4.25;4.25;;;;;21.86;41.09;101244.47;2088048;28;46829;-61
2023/06/05 00:41:24;;;;;;;;;4.25;4.25;;;;;21.86;41.73;101253.44;2093586;28;45500;-60
2023/06/05 00:42:26;;;;;;;;;3.50;3.00;;;;;21.85;41.53;101253.50;2094166;28;45668;-61
2023/06/05 00:43:26;;;;;;;;;4.20;4.20;;;;;21.84;41.75;101249.06;2080826;28;45773;-61
2023/06/05 00:44:27;;;;;;;;;3.75;3.75;;;;;21.83;42.13;101250.03;2092497;28;45959;-61
2023/06/05 00:45:27;;;;;;;;;4.50;2.75;;;;;21.81;41.13;101243.84;2095622;28;45697;-61
2023/06/05 00:46:28;;;;;;;;;4.50;4.50;;;;;21.77;41.54;101248.59;2094724;28;46992;-62
2023/06/05 00:47:29;;;;;;;;;6.00;4.00;;;;;21.74;41.85;101244.25;2091351;28;46422;-61
2023/06/05 00:48:31;;;;;;;;;4.60;4.20;;;;;21.72;41.74;101246.19;2095817;28;46420;-60
2023/06/05 00:49:31;;;;;;;;;3.00;3.00;;;;;21.71;41.39;101243.53;2094791;28;46041;-61
2023/06/05 00:50:33;;;;;;;;;4.50;4.50;;;;;21.70;41.51;101245.38;2103802;28;47471;-61
2023/06/05 00:51:33;;;;;;;;;4.00;4.00;;;;;21.69;41.58;101243.63;2106143;27;46360;-60
2023/06/05 00:52:34;;;;;;;;;4.00;4.00;;;;;21.69;41.72;101245.47;2089607;28;45830;-61
2023/06/05 00:53:36;;;;;;;;;5.50;4.00;;;;;21.68;41.84;101251.81;2095083;28;46495;-60
2023/06/05 00:54:37;;;;;;;;;5.40;5.40;;;;;21.66;41.83;101246.53;2094800;28;45865;-61
2023/06/05 00:55:37;;;;;;;;;5.75;5.75;;;;;21.66;42.17;101251.06;2095591;28;46094;-61
2023/06/05 00:56:39;;;;;;;;;5.25;4.00;;;;;21.64;42.25;101245.75;2095398;28;45422;-60
2023/06/05 00:57:39;;;;;;;;;3.20;3.20;;;;;21.63;42.01;101249.41;2093648;28;45520;-61
2023/06/05 00:58:40;;;;;;;;;7.00;6.25;;;;;21.62;42.35;101239.56;2095671;28;45244;-60
2023/06/05 00:59:44;;;;;;;;;2.75;2.75;;;;;21.62;42.31;101246.81;2094699;28;46597;-62
2023/06/05 01:00:45;;;;;;;;;5.00;4.00;;;;;21.62;42.14;101246.81;2095745;28;45602;-61
2023/06/05 01:01:47;;;;;;;;;3.50;3.50;;;;;21.60;41.93;101244.19;2089294;28;46317;-60
2023/06/05 01:02:48;;;;;;;;;3.00;3.00;;;;;21.60;41.79;101244.19;2093811;28;46165;-61
2023/06/05 01:03:48;;;;;;;;;3.75;3.75;;;;;21.59;42.23;101242.44;2095675;28;46071;-60
2023/06/05 01:04:49;;;;;;;;;6.00;5.25;;;;;21.57;41.95;101238.94;2095010;28;45599;-62
2023/06/05 01:05:49;;;;;;;;;3.50;3.50;;;;;21.56;41.81;101233.66;2089561;28;45709;-60
2023/06/05 01:06:51;;;;;;;;;3.75;3.75;;;;;21.57;42.15;101236.25;2088962;28;45878;-61
2023/06/05 01:07:53;;;;;;;;;3.00;3.00;;;;;21.57;41.98;101243.50;2092800;28;47599;-62
2023/06/05 01:08:54;;;;;;;;;4.80;4.00;;;;;21.57;42.30;101243.50;2093703;28;46305;-61
2023/06/05 01:09:54;;;;;;;;;3.50;3.50;;;;;21.57;42.14;101243.50;2095443;28;46403;-61
2023/06/05 01:11:00;;;;;;;;;4.25;4.25;;;;;21.57;42.51;101238.94;2096345;28;45507;-60
2023/06/05 01:12:11;;;;;;;;;3.80;3.80;;;;;21.57;42.50;101240.78;2096490;28;47019;-61
2023/06/05 01:13:23;;;;;;;;;5.40;5.00;;;;;21.57;42.55;101246.19;2091814;28;46589;-60
2023/06/05 01:14:32;;;;;;;;;4.20;2.60;;;;;21.56;42.93;101239.91;2095557;28;46192;-61
2023/06/05 01:15:33;;;;;;;;;3.40;3.40;;;;;21.56;42.33;101241.75;2095635;28;45943;-61
2023/06/05 01:16:35;;;;;;;;;2.60;2.60;;;;;21.55;42.67;101246.28;2087548;28;46257;-61
2023/06/05 01:17:36;;;;;;;;;4.60;4.60;;;;;21.54;42.42;101239.16;2080729;28;45270;-60
2023/06/05 01:18:40;;;;;;;;;4.00;4.00;;;;;21.52;42.30;101243.78;2082054;28;46542;-61
2023/06/05 01:19:43;;;;;;;;;7.40;5.40;;;;;21.51;42.56;101239.34;2088009;28;46418;-61
2023/06/05 01:20:43;;;;;;;;;5.80;4.40;;;;;21.50;42.48;101245.69;2081473;28;46046;-62
2023/06/05 01:21:43;;;;;;;;;4.50;3.25;;;;;21.49;42.24;101240.38;2086963;28;45540;-61
2023/06/05 01:22:49;;;;;;;;;5.00;4.00;;;;;21.47;42.71;101235.09;2088104;28;45980;-61
2023/06/05 01:23:53;;;;;;;;;2.40;2.40;;;;;21.47;42.44;101244.97;2103143;28;46395;-61
2023/06/05 01:24:53;;;;;;;;;4.40;4.40;;;;;21.44;42.62;101243.34;2085512;28;45751;-62
2023/06/05 01:25:58;;;;;;;;;5.50;4.75;;;;;21.44;42.35;101248.75;2070886;28;47061;-60
2023/06/05 01:27:12;;;;;;;;;4.40;4.00;;;;;21.43;42.95;101241.59;2080035;28;45569;-60
2023/06/05 01:28:27;;;;;;;;;4.00;4.00;;;;;21.41;43.04;101243.53;2081461;28;46508;-62
2023/06/05 01:29:44;;;;;;;;;4.00;4.00;;;;;21.38;42.63;101244.59;2088043;28;45662;-60
2023/06/05 01:30:44;;;;;;;;;1.40;1.40;;;;;21.38;43.03;101238.31;2087898;28;45739;-60
2023/06/05 01:31:45;;;;;;;;;4.25;3.25;;;;;21.37;42.41;101247.38;2088049;28;46650;-61
2023/06/05 01:32:53;;;;;;;;;9.40;6.20;;;;;21.35;42.65;101241.19;2088107;28;46033;-61
2023/06/05 01:34:01;;;;;;;;;5.80;4.80;;;;;21.34;42.46;101242.13;2087587;28;46941;-61
2023/06/05 01:35:03;;;;;;;;;5.00;5.00;;;;;21.33;42.46;101243.09;2087480;28;46326;-60
2023/06/05 01:36:04;;;;;;;;;5.20;5.00;;;;;21.32;42.87;101244.91;2094113;28;47820;-62
2023/06/05 01:37:08;;;;;;;;;4.00;4.00;;;;;21.30;42.96;101246.84;2088639;28;46536;-61
2023/06/05 01:38:11;;;;;;;;;5.00;5.00;;;;;21.30;43.08;101246.84;2089137;28;46335;-62
2023/06/05 01:39:12;;;;;;;;;5.00;5.00;;;;;21.28;42.77;101240.66;2096743;28;45602;-62
2023/06/05 01:40:15;;;;;;;;;5.80;4.60;;;;;21.28;42.82;101243.38;2082696;28;46581;-62
2023/06/05 01:41:17;;;;;;;;;5.00;5.00;;;;;21.27;43.02;101243.47;2087897;28;46027;-62
2023/06/05 01:42:17;;;;;;;;;5.80;4.40;;;;;21.25;42.97;101242.66;2088575;28;45650;-62
2023/06/05 01:43:18;;;;;;;;;3.75;3.75;;;;;21.24;43.14;101246.31;2087677;28;46788;-58
2023/06/05 01:44:19;;;;;;;;;6.75;4.00;;;;;21.23;43.45;101245.44;2086923;28;45939;-61
2023/06/05 01:45:20;;;;;;;;;3.50;3.00;;;;;21.22;43.37;101240.13;2088220;28;46006;-60
2023/06/05 01:46:22;;;;;;;;;3.75;3.75;;;;;21.21;42.95;101241.06;2087867;28;45874;-61
2023/06/05 01:47:23;;;;;;;;;3.00;3.00;;;;;21.21;43.70;101246.47;2087763;28;45650;-62
2023/06/05 01:48:27;;;;;;;;;2.00;2.00;;;;;21.19;42.98;101243.84;2088051;28;45638;-61
2023/06/05 01:49:28;;;;;;;;;4.00;4.00;;;;;21.19;43.66;101243.84;2087815;28;45172;-60
2023/06/05 01:50:33;;;;;;;;;4.00;4.00;;;;;21.18;43.33;101239.41;2087723;28;45801;-61
2023/06/05 01:51:34;;;;;;;;;5.00;5.00;;;;;21.16;43.19;101244.03;2087781;28;45809;-61
2023/06/05 01:52:35;;;;;;;;;5.75;5.50;;;;;21.15;43.60;101243.19;2089111;28;46528;-61
2023/06/05 01:53:36;;;;;;;;;6.00;6.00;;;;;21.14;43.40;101246.84;2087492;28;48470;-62
2023/06/05 01:54:36;;;;;;;;;4.25;4.25;;;;;21.14;43.40;101241.44;2088277;28;45783;-61
2023/06/05 01:55:38;;;;;;;;;5.00;5.00;;;;;21.12;43.41;101240.66;2088122;28;46281;-61
2023/06/05 01:56:39;;;;;;;;;5.00;5.00;;;;;21.11;43.23;101243.44;2078681;28;47408;-61
2023/06/05 01:57:40;;;;;;;;;3.50;3.50;;;;;21.11;43.91;101235.34;2078362;28;49013;-61
2023/06/05 01:58:40;;;;;;;;;6.00;5.00;;;;;21.10;43.47;101233.63;2085831;28;46548;-61
2023/06/05 01:59:43;;;;;;;;;5.50;5.50;;;;;21.08;43.28;101240.91;2089086;28;45796;-61
2023/06/05 02:00:45;;;;;;;;;5.60;5.40;;;;;21.07;43.29;101234.63;2087744;28;47594;-60
2023/06/05 02:01:46;;;;;;;;;5.00;3.80;;;;;21.06;43.84;101234.72;2086800;28;47282;-59
2023/06/05 02:02:48;;;;;;;;;6.80;5.80;;;;;21.06;43.34;101242.81;2088385;28;46010;-62
2023/06/05 02:03:49;;;;;;;;;5.40;4.40;;;;;21.04;44.09;101240.22;2088553;28;46024;-60
2023/06/05 02:04:53;;;;;;;;;5.80;5.40;;;;;21.03;44.18;101232.22;2078310;28;46475;-61
2023/06/05 02:05:54;;;;;;;;;4.20;4.20;;;;;21.01;43.63;101234.13;2078771;28;46601;-61
2023/06/05 02:06:55;;;;;;;;;5.50;5.50;;;;;20.99;44.15;101228.81;2086539;28;45565;-61
2023/06/05 02:07:58;;;;;;;;;5.00;4.00;;;;;20.98;44.30;101234.31;2089257;28;46419;-61
2023/06/05 02:08:58;;;;;;;;;4.80;4.80;;;;;20.96;44.22;101230.81;2087124;28;46011;-61
2023/06/05 02:10:02;;;;;;;;;5.00;5.00;;;;;20.94;43.77;101227.31;2094449;28;46407;-61
2023/06/05 02:11:02;;;;;;;;;5.20;5.20;;;;;20.93;43.89;101229.16;2090110;28;45808;-60
2023/06/05 02:12:03;;;;;;;;;5.25;5.25;;;;;20.93;44.09;101228.28;2087866;28;45786;-60
2023/06/05 02:13:03;;;;;;;;;6.00;6.00;;;;;20.91;43.97;101222.13;2084469;28;46827;-61
2023/06/05 02:14:06;;;;;;;;;3.00;3.00;;;;;20.91;44.55;101222.13;2093841;28;44921;-60
2023/06/05 02:15:08;;;;;;;;;5.40;4.20;;;;;20.90;43.91;101223.06;2079812;28;46040;-61
2023/06/05 02:16:10;;;;;;;;;5.00;4.00;;;;;20.90;44.32;101223.06;2073477;28;45648;-61
2023/06/05 02:17:13;;;;;;;;;4.80;4.80;;;;;20.89;43.94;101227.59;2072999;28;45576;-62
2023/06/05 02:18:15;;;;;;;;;4.00;4.00;;;;;20.89;43.91;101224.03;2093602;28;46495;-61
2023/06/05 02:19:16;;;;;;;;;5.40;5.20;;;;;20.88;43.91;101225.00;2078915;28;45533;-62
2023/06/05 02:20:17;;;;;;;;;3.60;3.40;;;;;20.88;43.99;101231.25;2073470;28;46407;-61
2023/06/05 02:21:18;;;;;;;;;4.80;4.20;;;;;20.87;44.11;101224.13;2095683;28;45588;-61
2023/06/05 02:22:18;;;;;;;;;6.00;5.00;;;;;20.85;44.41;101220.66;2091668;28;46418;-61
2023/06/05 02:23:19;;;;;;;;;5.50;5.50;;;;;20.83;44.30;101223.44;2096542;28;45717;-61
2023/06/05 02:24:19;;;;;;;;;5.75;5.00;;;;;20.83;44.62;101227.94;2091406;28;46150;-63
2023/06/05 02:25:21;;;;;;;;;4.25;4.25;;;;;20.82;44.00;101226.19;2087843;28;45903;-60
2023/06/05 02:26:22;;;;;;;;;7.40;6.80;;;;;20.80;44.24;101228.97;2096369;28;46272;-62
2023/06/05 02:27:24;;;;;;;;;4.25;4.25;;;;;20.79;44.20;101219.16;2091235;28;45683;-60
2023/06/05 02:28:26;;;;;;;;;4.60;4.60;;;;;20.80;44.68;101225.41;2088492;28;45166;-61
2023/06/05 02:29:27;;;;;;;;;3.00;3.00;;;;;20.78;44.08;101222.81;2092157;28;45899;-61
2023/06/05 02:30:27;;;;;;;;;4.00;4.00;;;;;20.78;44.71;101230.91;2091753;28;45842;-60
2023/06/05 02:31:28;;;;;;;;;5.00;4.75;;;;;20.77;44.06;101223.75;2092908;28;45549;-61
2023/06/05 02:32:31;;;;;;;;;6.00;5.60;;;;;20.76;44.64;101231.94;2095352;28;45575;-62
2023/06/05 02:33:31;;;;;;;;;6.80;5.80;;;;;20.74;44.34;101226.63;2096941;28;46055;-59
2023/06/05 02:34:32;;;;;;;;;6.75;6.75;;;;;20.75;44.50;101224.81;2089511;28;45620;-59
2023/06/05 02:35:32;;;;;;;;;4.25;4.00;;;;;20.72;44.61;101220.47;2088918;28;46528;-61
2023/06/05 02:36:35;;;;;;;;;6.00;5.00;;;;;20.72;44.82;101228.56;2094674;28;45763;-59
2023/06/05 02:37:36;;;;;;;;;5.40;5.40;;;;;20.72;44.76;101225.84;2090689;28;47150;-61
2023/06/05 02:38:38;;;;;;;;;3.60;3.20;;;;;20.73;44.89;101224.03;2088719;28;45072;-62
2023/06/05 02:39:38;;;;;;;;;4.80;4.20;;;;;20.72;44.76;101228.56;2088382;28;45543;-60
2023/06/05 02:40:39;;;;;;;;;3.75;3.75;;;;;20.71;44.29;101224.13;2089010;28;46593;-60
2023/06/05 02:41:39;;;;;;;;;4.75;3.75;;;;;20.71;44.51;101224.13;2090828;28;46444;-61
2023/06/05 02:42:40;;;;;;;;;5.00;5.00;;;;;20.71;45.04;101218.72;2088588;28;46353;-61
2023/06/05 02:43:40;;;;;;;;;4.60;4.60;;;;;20.71;44.88;101228.63;2082349;28;45210;-59
2023/06/05 02:44:41;;;;;;;;;5.00;5.00;;;;;20.69;44.99;101217.03;2088111;28;46393;-62
2023/06/05 02:45:41;;;;;;;;;7.00;7.00;;;;;20.67;45.06;101222.53;2087648;28;46095;-59
2023/06/05 02:46:41;;;;;;;;;7.50;6.00;;;;;20.66;44.80;101222.63;2088421;28;46560;-61
2023/06/05 02:47:42;;;;;;;;;5.00;3.75;;;;;20.66;44.64;101219.91;2091888;28;46258;-60
2023/06/05 02:48:42;;;;;;;;;6.00;5.75;;;;;20.65;44.99;101223.56;2093620;28;45329;-59
2023/06/05 02:49:42;;;;;;;;;6.00;6.00;;;;;20.64;44.96;101217.31;2088985;28;45668;-61
2023/06/05 02:50:43;;;;;;;;;6.25;6.25;;;;;20.64;44.70;101217.31;2105217;28;45589;-58
2023/06/05 02:51:43;;;;;;;;;4.50;4.50;;;;;20.63;44.95;101220.97;2106544;27;45821;-62
2023/06/05 02:52:43;;;;;;;;;6.25;6.25;;;;;20.63;44.72;101225.50;2079935;28;46065;-61
2023/06/05 02:53:43;;;;;;;;;4.75;4.75;;;;;20.62;45.21;101218.34;2079581;28;46362;-62
2023/06/05 02:54:44;;;;;;;;;6.50;4.00;;;;;20.61;45.28;101222.88;2079099;28;46220;-60
2023/06/05 02:55:44;;;;;;;;;8.75;6.00;;;;;20.62;44.87;101223.75;2080359;28;45548;-61
2023/06/05 02:56:45;;;;;;;;;5.00;5.00;;;;;20.60;45.07;101214.88;2071445;28;45909;-62
2023/06/05 02:57:48;;;;;;;;;6.50;5.00;;;;;20.60;45.42;101217.56;2071510;28;46045;-60
2023/06/05 02:58:49;;;;;;;;;5.60;5.60;;;;;20.60;45.48;101217.56;2079731;28;45632;-60
2023/06/05 02:59:49;;;;;;;;;6.75;6.00;;;;;20.59;45.20;101216.72;2063644;28;46219;-58
2023/06/05 03:00:50;;;;;;;;;5.25;5.25;;;;;20.60;45.14;101220.28;2062998;28;46345;-60
2023/06/05 03:01:51;;;;;;;;;6.60;5.80;;;;;20.59;45.11;101218.53;2079866;28;45308;-61
2023/06/05 03:02:51;;;;;;;;;5.25;3.75;;;;;20.59;45.27;101223.94;2079519;28;46045;-60
2023/06/05 03:03:52;;;;;;;;;3.00;3.00;;;;;20.59;45.39;101221.22;2082636;28;45562;-62
2023/06/05 03:04:53;;;;;;;;;6.25;5.75;;;;;20.57;45.41;101218.59;2083216;28;46345;-61
2023/06/05 03:05:53;;;;;;;;;4.25;4.00;;;;;20.58;45.32;101223.03;2079690;28;45782;-63
2023/06/05 03:06:56;;;;;;;;;4.00;4.00;;;;;20.57;45.45;101218.59;2079416;28;46776;-59
2023/06/05 03:07:56;;;;;;;;;6.80;5.80;;;;;20.54;45.01;101211.56;2071736;28;45732;-61
2023/06/05 03:08:57;;;;;;;;;6.00;5.25;;;;;20.54;45.27;101225.03;2071457;28;45694;-63
2023/06/05 03:09:57;;;;;;;;;7.25;5.00;;;;;20.52;45.51;101221.56;2079477;28;45927;-61
2023/06/05 03:10:58;;;;;;;;;6.00;6.00;;;;;20.52;45.29;101212.59;2079689;28;45752;-59
2023/06/05 03:11:59;;;;;;;;;7.75;5.75;;;;;20.50;45.12;101217.22;2079274;28;45670;-61
2023/06/05 03:12:59;;;;;;;;;5.00;5.00;;;;;20.49;45.75;101212.78;2079799;28;46063;-60
2023/06/05 03:14:00;;;;;;;;;6.00;4.75;;;;;20.47;45.66;101214.69;2079621;28;46406;-61
2023/06/05 03:15:00;;;;;;;;;7.75;7.25;;;;;20.48;45.69;101209.22;2071264;28;45632;-59
2023/06/05 03:16:01;;;;;;;;;5.25;4.00;;;;;20.48;45.25;101221.81;2071853;28;45955;-60
2023/06/05 03:17:03;;;;;;;;;6.50;4.00;;;;;20.45;45.85;101214.75;2071227;28;45510;-60
2023/06/05 03:18:04;;;;;;;;;6.00;5.00;;;;;20.43;45.98;101211.28;2071713;28;45830;-60
2023/06/05 03:19:04;;;;;;;;;6.25;6.00;;;;;20.44;45.95;101214.84;2079061;28;46716;-61
2023/06/05 03:20:09;;;;;;;;;7.00;6.75;;;;;20.44;45.97;101214.84;2079500;28;46008;-60
2023/06/05 03:21:10;;;;;;;;;5.40;4.80;;;;;20.44;45.76;101214.84;2082515;28;45691;-61
2023/06/05 03:22:10;;;;;;;;;7.20;6.80;;;;;20.44;45.88;101221.09;2082925;28;45051;-62
2023/06/05 03:23:10;;;;;;;;;6.25;6.00;;;;;20.44;45.58;101212.13;2086172;28;45544;-61
2023/06/05 03:24:14;;;;;;;;;7.00;5.25;;;;;20.43;45.81;101216.66;2087318;28;46277;-61
2023/06/05 03:25:14;;;;;;;;;7.80;7.80;;;;;20.42;45.70;101214.06;2088316;28;45938;-60
2023/06/05 03:26:15;;;;;;;;;8.00;7.25;;;;;20.40;45.75;101216.81;2093939;28;45038;-62
2023/06/05 03:27:15;;;;;;;;;7.75;5.00;;;;;20.40;45.66;101219.50;2097185;28;46439;-61
2023/06/05 03:28:16;;;;;;;;;6.25;6.00;;;;;20.38;45.94;101217.84;2097492;28;46322;-60
2023/06/05 03:29:16;;;;;;;;;5.25;5.25;;;;;20.36;45.55;101212.53;2096279;28;46472;-60
2023/06/05 03:30:18;;;;;;;;;6.00;4.00;;;;;20.35;45.73;101218.03;2083086;28;45640;-61
2023/06/05 03:31:19;;;;;;;;;6.80;6.80;;;;;20.34;45.64;101219.84;2088115;28;45645;-60
2023/06/05 03:32:19;;;;;;;;;8.00;6.00;;;;;20.33;45.76;101219.91;2089128;28;45772;-61
2023/06/05 03:33:20;;;;;;;;;7.00;6.25;;;;;20.32;45.59;101220.84;2088199;28;46538;-61
2023/06/05 03:34:22;;;;;;;;;5.50;5.50;;;;;20.29;46.12;101224.59;2087551;28;46333;-62
2023/06/05 03:35:22;;;;;;;;;7.20;7.20;;;;;20.28;46.25;101221.03;2088374;28;46984;-61
2023/06/05 03:36:23;;;;;;;;;9.00;5.25;;;;;20.26;46.20;101217.56;2088154;28;45694;-62
2023/06/05 03:37:23;;;;;;;;;6.75;6.75;;;;;20.26;46.16;101219.38;2089319;28;46993;-62
2023/06/05 03:38:23;;;;;;;;;7.75;6.50;;;;;20.25;46.26;101225.72;2087406;28;46062;-64
2023/06/05 03:39:24;;;;;;;;;6.00;6.00;;;;;20.23;46.01;101217.72;2088538;28;45034;-62
2023/06/05 03:40:24;;;;;;;;;7.75;7.00;;;;;20.23;46.35;101217.72;2088213;28;45065;-61
2023/06/05 03:41:25;;;;;;;;;5.75;5.75;;;;;20.21;46.56;101218.78;2095228;28;45653;-61
2023/06/05 03:42:27;;;;;;;;;7.60;6.40;;;;;20.20;46.48;101222.38;2088125;28;46739;-60
2023/06/05 03:43:27;;;;;;;;;5.40;5.40;;;;;20.19;46.26;101217.94;2087239;28;45619;-60
2023/06/05 03:44:27;;;;;;;;;6.50;6.50;;;;;20.16;46.67;101216.31;2080883;28;46309;-61
2023/06/05 03:45:28;;;;;;;;;8.00;7.00;;;;;20.14;46.21;101220.03;2080733;28;46025;-59
2023/06/05 03:46:29;;;;;;;;;9.25;9.25;;;;;20.13;46.39;101224.56;2096581;28;45064;-59
2023/06/05 03:47:29;;;;;;;;;5.40;5.40;;;;;20.13;46.27;101219.16;2097241;28;46644;-61
2023/06/05 03:48:30;;;;;;;;;9.75;6.00;;;;;20.12;46.60;101214.72;2088475;28;46228;-61
2023/06/05 03:49:31;;;;;;;;;6.00;6.00;;;;;20.13;46.34;101221.00;2088900;28;45724;-63
2023/06/05 03:50:33;;;;;;;;;6.00;6.00;;;;;20.12;46.35;101219.25;2088154;28;46606;-61
2023/06/05 03:51:34;;;;;;;;;6.20;6.00;;;;;20.10;46.66;101219.34;2092155;28;45707;-61
2023/06/05 03:52:37;;;;;;;;;8.00;8.00;;;;;20.08;46.72;101212.28;2088891;28;45709;-67
2023/06/05 03:53:39;;;;;;;;;8.00;8.00;;;;;20.09;46.56;101217.59;2089236;28;45809;-63
2023/06/05 03:54:40;;;;;;;;;6.60;5.80;;;;;20.08;47.12;101223.06;2090544;28;45667;-61
2023/06/05 03:55:40;;;;;;;;;6.00;6.00;;;;;20.07;47.19;101221.31;2088699;28;45498;-62
2023/06/05 03:56:43;;;;;;;;;8.00;8.00;;;;;20.07;47.10;101222.16;2088620;28;45939;-62
2023/06/05 03:57:43;;;;;;;;;7.20;7.20;;;;;20.07;46.38;101219.47;2088235;28;46805;-61
2023/06/05 03:58:45;;;;;;;;;6.25;6.00;;;;;20.07;47.40;101224.00;2088808;28;46088;-62
2023/06/05 03:59:46;;;;;;;;;7.00;7.00;;;;;20.07;47.05;101218.59;2088516;28;46378;-58
2023/06/05 04:00:51;;;;;;;;;6.60;6.60;;;;;20.05;46.82;101218.69;2089279;28;46206;-60
2023/06/05 04:01:51;;;;;;;;;9.20;9.00;;;;;20.03;46.84;101219.72;2088253;28;46319;-58
2023/06/05 04:02:52;;;;;;;;;5.50;5.50;;;;;20.03;46.94;101222.44;2103951;28;46588;-59
2023/06/05 04:03:52;;;;;;;;;6.50;6.25;;;;;20.01;46.84;101225.22;2087575;28;45639;-61
2023/06/05 04:04:52;;;;;;;;;7.50;7.50;;;;;20.02;47.43;101226.06;2079505;28;45510;-60
2023/06/05 04:05:53;;;;;;;;;5.50;4.50;;;;;19.99;47.22;101222.59;2088345;28;46522;-61
2023/06/05 04:06:56;;;;;;;;;8.25;6.50;;;;;19.97;46.81;101224.50;2089404;28;46804;-61
2023/06/05 04:07:57;;;;;;;;;9.40;7.20;;;;;19.97;47.26;101227.19;2089561;28;47224;-61
2023/06/05 04:08:57;;;;;;;;;7.25;6.25;;;;;19.98;47.47;101228.94;2088549;28;45577;-60
2023/06/05 04:09:57;;;;;;;;;11.25;9.25;;;;;19.98;46.96;101234.31;2088586;28;46175;-62
2023/06/05 04:10:58;;;;;;;;;7.00;7.00;;;;;19.97;47.09;101227.19;2088904;28;45036;-59
2023/06/05 04:11:58;;;;;;;;;8.00;8.00;;;;;19.96;47.40;101224.59;2088581;28;46978;-61
2023/06/05 04:12:59;;;;;;;;;8.00;8.00;;;;;19.95;47.16;101230.94;2089401;28;45309;-60
2023/06/05 04:13:59;;;;;;;;;8.75;7.75;;;;;19.94;47.41;101230.03;2088717;28;46026;-60
2023/06/05 04:15:00;;;;;;;;;9.75;8.00;;;;;19.95;47.56;101230.94;2088651;28;45534;-61
2023/06/05 04:16:01;;;;;;;;;7.00;6.50;;;;;19.94;47.64;101232.72;2088101;28;46131;-60
2023/06/05 04:17:02;;;;;;;;;8.80;7.60;;;;;19.94;47.71;101226.47;2088149;28;47045;-60
2023/06/05 04:18:03;;;;;;;;;5.75;5.75;;;;;19.94;47.44;101226.47;2088573;28;45696;-61
2023/06/05 04:19:07;;;;;;;;;9.00;8.50;;;;;19.93;47.51;101225.59;2087836;28;46682;-61
2023/06/05 04:20:13;;;;;;;;;6.40;5.80;;;;;19.93;47.92;101222.03;2086892;28;46485;-61
2023/06/05 04:21:14;;;;;;;;;8.20;7.80;;;;;19.91;47.76;101227.50;2087042;28;46476;-62
2023/06/05 04:22:14;;;;;;;;;8.00;8.00;;;;;19.91;47.34;101232.03;2086313;28;46254;-60
2023/06/05 04:23:15;;;;;;;;;8.25;8.25;;;;;19.90;47.80;101225.75;2086582;28;46696;-61
2023/06/05 04:24:15;;;;;;;;;8.75;8.00;;;;;19.90;47.32;101231.16;2103615;27;45591;-60
2023/06/05 04:25:16;;;;;;;;;9.00;8.00;;;;;19.89;47.69;101233.94;2103712;28;45758;-61
2023/06/05 04:26:17;;;;;;;;;9.25;7.25;;;;;19.88;47.93;101238.44;2086821;28;46248;-59
2023/06/05 04:27:17;;;;;;;;;6.40;6.40;;;;;19.89;47.92;101242.00;2087565;28;45598;-60
2023/06/05 04:28:18;;;;;;;;;8.50;8.50;;;;;19.88;47.89;101240.28;2087943;28;45457;-61
2023/06/05 04:29:19;;;;;;;;;9.00;9.00;;;;;19.88;47.99;101237.56;2087369;28;45073;-59
2023/06/05 04:30:19;;;;;;;;;9.75;8.25;;;;;19.89;48.08;101239.31;2086197;28;46286;-60
2023/06/05 04:31:20;;;;;;;;;7.75;5.25;;;;;19.89;47.84;101236.63;2086182;28;46992;-60
2023/06/05 04:32:20;;;;;;;;;6.00;6.00;;;;;19.89;48.17;101239.31;2086158;28;46243;-60
2023/06/05 04:33:20;;;;;;;;;10.25;9.75;;;;;19.88;47.70;101234.88;2078963;28;46175;-61
2023/06/05 04:34:21;;;;;;;;;7.75;7.00;;;;;19.87;47.86;101239.41;2086376;28;46682;-58
2023/06/05 04:35:21;;;;;;;;;9.75;9.00;;;;;19.86;47.91;101248.44;2087139;28;45656;-62
2023/06/05 04:36:22;;;;;;;;;12.50;9.75;;;;;19.87;47.99;101235.84;2086315;28;46144;-58
2023/06/05 04:37:22;;;;;;;;;8.75;8.75;;;;;19.87;48.37;101236.72;2086430;28;46165;-61
2023/06/05 04:38:23;;;;;;;;;9.00;8.00;;;;;19.87;48.24;101238.53;2077085;28;45756;-60
2023/06/05 04:39:23;;;;;;;;;6.75;6.00;;;;;19.87;48.20;101241.22;2078176;28;46763;-61
2023/06/05 04:40:24;;;;;;;;;7.00;7.00;;;;;19.85;47.89;101233.22;2087579;28;45853;-60
2023/06/05 04:41:25;;;;;;;;;9.50;9.50;;;;;19.84;48.23;101242.25;2086735;28;45720;-61
2023/06/05 04:42:26;;;;;;;;;8.80;8.80;;;;;19.85;48.08;101240.44;2086935;28;45725;-61
2023/06/05 04:43:26;;;;;;;;;8.00;7.00;;;;;19.84;47.84;101236.88;2086127;28;46231;-61
2023/06/05 04:44:26;;;;;;;;;8.25;8.00;;;;;19.84;48.40;101238.69;2087126;28;46064;-60
2023/06/05 04:45:27;;;;;;;;;10.75;10.50;;;;;19.85;48.21;101243.13;2086762;28;46824;-60